createdAt,value
2018-09-23T00:00:56.298Z,8.50
2018-09-23T00:03:24.173Z,13.93
2018-09-23T00:05:52.086Z,6.20
2018-09-23T00:08:19.935Z,12.50
2018-09-23T00:10:47.773Z,7.90
2018-09-23T00:13:15.636Z,14.13
2018-09-23T00:15:43.389Z,10.20
2018-09-23T00:18:11.263Z,17.10
2018-09-23T00:20:39.195Z,22.37
2018-09-23T00:23:06.883Z,11.87
2018-09-23T00:25:34.648Z,10.43
2018-09-23T00:28:02.515Z,17.40
2018-09-23T00:30:30.485Z,13.93
2018-09-23T00:32:58.301Z,11.77
2018-09-23T00:35:26.215Z,15.13
2018-09-23T00:37:54.119Z,14.80
2018-09-23T00:40:22.271Z,15.83
2018-09-23T00:42:50.137Z,19.57
2018-09-23T00:45:18.225Z,16.57
2018-09-23T00:47:46.169Z,18.03
2018-09-23T00:50:14.285Z,16.57
2018-09-23T00:52:42.353Z,20.00
2018-09-23T00:55:10.836Z,19.80
2018-09-23T00:57:38.669Z,24.07
2018-09-23T01:00:06.823Z,22.30
2018-09-23T01:02:34.674Z,23.63
2018-09-23T01:05:02.572Z,19.77
2018-09-23T01:07:30.514Z,20.20
2018-09-23T01:09:58.353Z,17.57
2018-09-23T01:12:26.244Z,15.20
2018-09-23T01:14:54.042Z,24.50
2018-09-23T01:17:21.984Z,25.03
2018-09-23T01:19:49.894Z,13.53
2018-09-23T01:22:17.739Z,20.03
2018-09-23T01:24:45.637Z,26.20
2018-09-23T01:27:13.672Z,28.47
2018-09-23T01:29:41.976Z,16.23
2018-09-23T01:32:10.048Z,29.67
2018-09-23T01:34:37.821Z,24.90
2018-09-23T01:37:05.827Z,18.60
2018-09-23T01:39:33.653Z,25.70
2018-09-23T01:42:01.879Z,19.03
2018-09-23T01:44:29.773Z,23.63
2018-09-23T01:46:57.745Z,18.90
2018-09-23T01:49:25.614Z,18.53
2018-09-23T01:51:53.487Z,27.07
2018-09-23T01:54:21.517Z,22.17
2018-09-23T01:56:49.408Z,22.20
2018-09-23T01:59:17.378Z,20.53
2018-09-23T02:01:45.183Z,21.63
2018-09-23T02:04:13.101Z,30.93
2018-09-23T02:06:41.030Z,26.67
2018-09-23T02:09:09.349Z,26.13
2018-09-23T02:11:37.177Z,27.80
2018-09-23T02:14:05.108Z,27.43
2018-09-23T02:16:33.020Z,19.50
2018-09-23T02:19:00.898Z,24.20
2018-09-23T02:21:28.808Z,24.97
2018-09-23T02:23:56.741Z,21.00
2018-09-23T02:26:24.560Z,23.43
2018-09-23T02:28:52.373Z,27.73
2018-09-23T02:31:20.270Z,18.97
2018-09-23T02:33:48.064Z,23.30
2018-09-23T02:36:15.916Z,21.47
2018-09-23T02:38:43.745Z,29.27
2018-09-23T02:41:11.686Z,25.87
2018-09-23T02:43:39.395Z,24.73
2018-09-23T02:46:07.320Z,22.90
2018-09-23T02:48:35.034Z,25.03
2018-09-23T02:51:02.972Z,26.40
2018-09-23T02:53:30.937Z,27.40
2018-09-23T02:55:59.112Z,24.23
2018-09-23T02:58:26.813Z,28.77
2018-09-23T03:00:54.586Z,30.60
2018-09-23T03:03:22.400Z,29.83
2018-09-23T03:05:50.313Z,29.10
2018-09-23T03:08:18.165Z,19.23
2018-09-23T03:10:46.014Z,35.83
2018-09-23T03:13:13.956Z,32.67
2018-09-23T03:15:41.904Z,25.57
2018-09-23T03:18:09.771Z,28.90
2018-09-23T03:20:37.615Z,35.20
2018-09-23T03:23:05.510Z,35.40
2018-09-23T03:25:33.350Z,32.00
2018-09-23T03:28:01.148Z,33.63
2018-09-23T03:30:29.012Z,32.70
2018-09-23T03:32:56.938Z,24.63
2018-09-23T03:35:24.739Z,29.83
2018-09-23T03:37:52.846Z,26.43
2018-09-23T03:40:20.729Z,33.67
2018-09-23T03:42:48.631Z,24.90
2018-09-23T03:45:16.354Z,26.87
2018-09-23T03:47:44.392Z,33.40
2018-09-23T03:50:12.229Z,28.07
2018-09-23T03:52:40.085Z,28.40
2018-09-23T03:55:07.849Z,31.07
2018-09-23T03:57:36.114Z,37.07
2018-09-23T04:00:04.622Z,30.10
2018-09-23T04:02:32.354Z,47.60
2018-09-23T04:05:00.141Z,29.03
2018-09-23T04:07:28.013Z,27.80
2018-09-23T04:09:55.845Z,28.30
2018-09-23T04:12:23.585Z,30.00
2018-09-23T04:14:51.454Z,35.77
2018-09-23T04:17:19.368Z,42.47
2018-09-23T04:19:47.231Z,26.90
2018-09-23T04:22:15.174Z,31.87
2018-09-23T04:24:43.015Z,38.30
2018-09-23T04:27:10.828Z,37.90
2018-09-23T04:29:38.839Z,27.13
2018-09-23T04:32:06.811Z,26.13
2018-09-23T04:34:34.683Z,42.00
2018-09-23T04:37:02.574Z,27.77
2018-09-23T04:39:30.411Z,24.40
2018-09-23T04:41:58.234Z,39.17
2018-09-23T04:44:25.960Z,30.20
2018-09-23T04:46:53.894Z,36.30
2018-09-23T04:49:21.924Z,25.73
2018-09-23T04:51:49.784Z,35.63
2018-09-23T04:54:17.476Z,30.33
2018-09-23T04:56:45.298Z,28.77
2018-09-23T04:59:13.499Z,29.50
2018-09-23T05:01:41.358Z,34.70
2018-09-23T05:04:09.240Z,29.80
2018-09-23T05:06:36.964Z,29.00
2018-09-23T05:09:06.728Z,20.97
2018-09-23T05:11:34.645Z,28.07
2018-09-23T05:14:02.550Z,29.40
2018-09-23T05:16:30.258Z,32.10
2018-09-23T05:18:58.343Z,25.97
2018-09-23T05:21:26.621Z,36.70
2018-09-23T05:23:54.441Z,26.27
2018-09-23T05:26:22.478Z,46.77
2018-09-23T05:28:50.400Z,29.97
2018-09-23T05:31:18.329Z,37.57
2018-09-23T05:33:46.152Z,31.23
2018-09-23T05:36:14.019Z,33.23
2018-09-23T05:38:42.682Z,32.23
2018-09-23T05:41:10.506Z,34.03
2018-09-23T05:43:39.287Z,29.97
2018-09-23T05:46:07.059Z,36.60
2018-09-23T05:48:34.978Z,27.47
2018-09-23T05:51:03.198Z,34.70
2018-09-23T05:53:31.007Z,27.23
2018-09-23T05:55:58.962Z,27.57
2018-09-23T05:58:26.717Z,33.73
2018-09-23T06:00:55.366Z,29.00
2018-09-23T06:03:23.071Z,33.27
2018-09-23T06:05:50.906Z,24.73
2018-09-23T06:08:18.648Z,31.00
2018-09-23T06:10:46.434Z,43.57
2018-09-23T06:13:14.256Z,39.97
2018-09-23T06:15:42.239Z,36.43
2018-09-23T06:18:10.006Z,36.20
2018-09-23T06:20:37.907Z,32.80
2018-09-23T06:23:05.642Z,31.13
2018-09-23T06:25:33.535Z,31.17
2018-09-23T06:28:01.372Z,29.67
2018-09-23T06:30:29.305Z,31.60
2018-09-23T06:32:57.044Z,31.87
2018-09-23T06:35:24.970Z,34.00
2018-09-23T06:37:52.833Z,34.17
2018-09-23T06:40:20.752Z,32.70
2018-09-23T06:42:48.608Z,31.97
2018-09-23T06:45:16.459Z,29.17
2018-09-23T06:47:44.066Z,34.23
2018-09-23T06:50:11.802Z,31.93
2018-09-23T06:52:39.594Z,37.97
2018-09-23T06:55:07.476Z,23.97
2018-09-23T06:57:35.334Z,26.37
2018-09-23T07:00:03.152Z,37.03
2018-09-23T07:02:31.295Z,40.07
2018-09-23T07:04:59.173Z,37.07
2018-09-23T07:07:26.981Z,34.77
2018-09-23T07:09:54.781Z,37.37
2018-09-23T07:12:22.660Z,32.83
2018-09-23T07:14:50.354Z,37.87
2018-09-23T07:17:18.278Z,35.37
2018-09-23T07:19:46.013Z,42.33
2018-09-23T07:22:13.808Z,31.03
2018-09-23T07:24:43.755Z,34.13
2018-09-23T07:27:11.501Z,33.33
2018-09-23T07:29:39.440Z,27.63
2018-09-23T07:32:07.875Z,31.60
2018-09-23T07:34:36.255Z,37.97
2018-09-23T07:37:04.275Z,40.23
2018-09-23T07:39:39.224Z,29.53
2018-09-23T07:42:07.208Z,37.07
2018-09-23T07:44:35.261Z,40.20
2018-09-23T07:47:03.219Z,34.53
2018-09-23T07:49:31.156Z,32.10
2018-09-23T07:51:59.883Z,37.47
2018-09-23T07:54:27.844Z,30.70
2018-09-23T07:56:55.618Z,32.23
2018-09-23T07:59:23.361Z,52.23
2018-09-23T08:01:51.945Z,41.87
2018-09-23T08:04:19.937Z,34.53
2018-09-23T08:06:47.834Z,30.87
2018-09-23T08:09:15.759Z,28.57
2018-09-23T08:11:43.456Z,35.30
2018-09-23T08:14:11.678Z,37.73
2018-09-23T08:16:40.109Z,31.83
2018-09-23T08:19:08.242Z,32.10
2018-09-23T08:21:36.458Z,33.30
2018-09-23T08:24:04.513Z,28.93
2018-09-23T08:26:32.491Z,37.57
2018-09-23T08:29:03.228Z,30.93
2018-09-23T08:31:31.582Z,30.43
2018-09-23T08:34:00.758Z,29.33
2018-09-23T08:36:28.607Z,29.33
2018-09-23T08:38:56.774Z,31.67
2018-09-23T08:41:24.773Z,32.07
2018-09-23T08:43:52.973Z,29.73
2018-09-23T08:46:21.609Z,32.80
2018-09-23T08:48:49.566Z,26.53
2018-09-23T08:51:17.669Z,27.73
2018-09-23T08:53:45.757Z,25.57
2018-09-23T08:56:13.527Z,26.53
2018-09-23T08:58:41.515Z,30.53
2018-09-23T09:01:09.303Z,25.50
2018-09-23T09:03:37.203Z,34.43
2018-09-23T09:06:07.758Z,32.13
2018-09-23T09:08:35.562Z,25.63
2018-09-23T09:11:03.476Z,15.77
2018-09-23T09:13:31.263Z,20.77
2018-09-23T09:15:59.114Z,26.20
2018-09-23T09:18:27.043Z,25.10
2018-09-23T09:20:54.879Z,19.93
2018-09-23T09:23:22.669Z,36.87
2018-09-23T09:25:50.452Z,22.80
2018-09-23T09:28:18.199Z,23.87
2018-09-23T09:30:46.009Z,23.00
2018-09-23T09:33:14.115Z,24.37
2018-09-23T09:35:41.929Z,20.33
2018-09-23T09:38:09.943Z,19.73
2018-09-23T09:40:37.683Z,17.47
2018-09-23T09:43:05.434Z,25.67
2018-09-23T09:45:33.642Z,26.27
2018-09-23T09:48:01.543Z,31.43
2018-09-23T09:50:29.385Z,23.10
2018-09-23T09:52:57.192Z,19.83
2018-09-23T09:55:24.958Z,22.03
2018-09-23T09:57:52.723Z,23.13
2018-09-23T10:00:26.075Z,18.20
2018-09-23T10:02:54.019Z,21.87
2018-09-23T10:05:21.881Z,18.70
2018-09-23T10:07:50.956Z,20.00
2018-09-23T10:10:19.234Z,20.67
2018-09-23T10:12:47.696Z,23.33
2018-09-23T10:15:15.694Z,13.30
2018-09-23T10:17:43.499Z,16.87
2018-09-23T10:20:11.216Z,16.03
2018-09-23T10:22:39.168Z,18.97
2018-09-23T10:25:07.502Z,23.87
2018-09-23T10:27:35.812Z,18.20
2018-09-23T10:30:04.394Z,21.93
2018-09-23T10:32:32.417Z,24.27
2018-09-23T10:35:00.307Z,19.50
2018-09-23T10:37:28.070Z,18.73
2018-09-23T10:42:30.456Z,18.77
2018-09-23T10:44:58.291Z,15.90
2018-09-23T10:47:26.060Z,25.50
2018-09-23T10:49:53.955Z,23.63
2018-09-23T10:57:22.923Z,13.77
